Time;durP1;ratioP1;P1;durP2;ratioP2;P2;SDS_P1;SDS_P2;PMS_P1;PMS_P2;Temp;Humidity;BMP_temperature;BMP_pressure;BME280_temperature;BME280_humidity;BME280_pressure;Samples;Min_cycle;Max_cycle;Signal;HPM_P1;HPM_P2
2024/01/29 00:00:48;;;;;;;52.87;23.73;;;;;;;;;;5033109;28;20078;-74
2024/01/29 00:03:14;;;;;;;52.90;23.63;;;;;;;;;;5032837;28;20101;-74
2024/01/29 00:05:39;;;;;;;51.43;23.93;;;;;;;;;;5031488;28;20108;-74
2024/01/29 00:08:05;;;;;;;51.77;24.13;;;;;;;;;;5031678;28;20025;-72
2024/01/29 00:10:30;;;;;;;58.33;23.17;;;;;;;;;;5031018;28;20054;-71
2024/01/29 00:12:56;;;;;;;47.37;21.80;;;;;;;;;;5031459;28;20512;-72
2024/01/29 00:15:21;;;;;;;51.90;22.10;;;;;;;;;;5032391;28;20026;-74
2024/01/29 00:17:47;;;;;;;47.40;20.87;;;;;;;;;;5031338;28;20320;-73
2024/01/29 00:20:13;;;;;;;43.83;20.60;;;;;;;;;;5032378;28;20021;-74
2024/01/29 00:22:38;;;;;;;56.10;22.43;;;;;;;;;;5031950;28;20509;-73
2024/01/29 00:25:04;;;;;;;44.87;21.70;;;;;;;;;;5032367;28;20385;-75
2024/01/29 00:27:30;;;;;;;46.60;21.10;;;;;;;;;;5031149;28;20036;-75
2024/01/29 00:29:56;;;;;;;50.07;19.43;;;;;;;;;;5033678;28;20028;-74
2024/01/29 00:32:22;;;;;;;47.40;21.03;;;;;;;;;;5031905;28;20080;-73
2024/01/29 00:34:48;;;;;;;47.40;19.37;;;;;;;;;;5032588;28;20103;-76
2024/01/29 00:37:13;;;;;;;41.37;18.83;;;;;;;;;;5032375;28;20264;-73
2024/01/29 00:39:40;;;;;;;50.63;21.20;;;;;;;;;;5030874;28;20477;-76
2024/01/29 00:42:05;;;;;;;43.50;19.57;;;;;;;;;;5032345;28;20030;-73
2024/01/29 00:44:31;;;;;;;41.53;19.30;;;;;;;;;;5031871;28;20026;-73
2024/01/29 00:46:56;;;;;;;41.47;19.17;;;;;;;;;;5034286;28;20035;-73
2024/01/29 00:49:22;;;;;;;45.60;19.70;;;;;;;;;;5036102;28;20040;-70
2024/01/29 00:51:47;;;;;;;52.77;21.70;;;;;;;;;;5035004;28;20017;-75
2024/01/29 00:54:13;;;;;;;42.23;19.40;;;;;;;;;;5031869;28;20029;-75
2024/01/29 00:56:39;;;;;;;40.67;19.80;;;;;;;;;;5030385;28;20044;-75
2024/01/29 00:59:04;;;;;;;48.00;20.07;;;;;;;;;;5030363;28;20450;-75
2024/01/29 01:01:30;;;;;;;44.63;21.10;;;;;;;;;;5031383;28;20152;-74
2024/01/29 01:03:55;;;;;;;56.10;21.93;;;;;;;;;;5032132;28;20159;-75
2024/01/29 01:06:21;;;;;;;47.67;22.33;;;;;;;;;;5030335;28;20025;-74
2024/01/29 01:08:47;;;;;;;46.53;21.80;;;;;;;;;;5031324;28;20029;-75
2024/01/29 01:11:13;;;;;;;45.17;21.03;;;;;;;;;;5031527;28;20056;-75
2024/01/29 01:13:38;;;;;;;47.43;22.87;;;;;;;;;;5031518;28;20025;-74
2024/01/29 01:16:04;;;;;;;52.20;22.23;;;;;;;;;;5031764;28;20030;-73
2024/01/29 01:18:29;;;;;;;48.27;22.03;;;;;;;;;;5030053;28;20026;-75
2024/01/29 01:20:55;;;;;;;44.57;21.60;;;;;;;;;;5030102;28;20392;-75
2024/01/29 01:23:20;;;;;;;53.20;21.53;;;;;;;;;;5031458;28;20025;-74
2024/01/29 01:25:46;;;;;;;43.00;21.67;;;;;;;;;;5030937;28;20432;-73
2024/01/29 01:28:12;;;;;;;52.60;21.17;;;;;;;;;;5030905;28;20418;-74
2024/01/29 01:30:37;;;;;;;50.23;20.93;;;;;;;;;;5031089;28;20485;-71
2024/01/29 01:33:03;;;;;;;48.40;22.90;;;;;;;;;;5030283;28;20116;-73
2024/01/29 01:35:28;;;;;;;48.67;20.87;;;;;;;;;;5031945;28;20104;-73
2024/01/29 01:37:54;;;;;;;56.13;21.50;;;;;;;;;;5031609;28;20477;-74
2024/01/29 01:40:20;;;;;;;51.87;20.10;;;;;;;;;;5030668;28;20026;-74
2024/01/29 01:42:47;;;;;;;47.90;21.13;;;;;;;;;;5010257;28;20033;-74
2024/01/29 01:45:13;;;;;;;49.97;20.53;;;;;;;;;;5011159;28;20547;-74
2024/01/29 01:47:40;;;;;;;58.40;22.60;;;;;;;;;;5011538;28;20034;-76
2024/01/29 01:50:08;;;;;;;50.73;20.83;;;;;;;;;;5011201;28;20030;-73
2024/01/29 01:52:37;;;;;;;43.43;20.43;;;;;;;;;;5010745;28;20038;-73
2024/01/29 01:55:03;;;;;;;51.00;22.20;;;;;;;;;;5009698;28;20032;-74
2024/01/29 01:57:29;;;;;;;45.50;22.03;;;;;;;;;;5009758;28;20036;-73
2024/01/29 01:59:56;;;;;;;52.73;22.37;;;;;;;;;;5011312;28;20470;-74
2024/01/29 02:02:22;;;;;;;46.87;21.40;;;;;;;;;;5010195;28;20079;-75
2024/01/29 02:04:47;;;;;;;51.87;21.37;;;;;;;;;;5011637;28;20021;-72
2024/01/29 02:07:13;;;;;;;49.53;19.90;;;;;;;;;;5011217;28;20036;-74
2024/01/29 02:09:39;;;;;;;49.33;21.07;;;;;;;;;;5011210;28;20385;-73
2024/01/29 02:12:05;;;;;;;40.77;21.53;;;;;;;;;;5010395;28;20065;-75
2024/01/29 02:14:30;;;;;;;53.37;22.27;;;;;;;;;;5009205;28;20112;-74
2024/01/29 02:16:56;;;;;;;51.80;23.63;;;;;;;;;;5008957;28;20022;-74
2024/01/29 02:19:21;;;;;;;55.70;21.70;;;;;;;;;;5009950;28;20049;-73
2024/01/29 02:21:49;;;;;;;45.90;21.33;;;;;;;;;;5009209;28;20410;-73
2024/01/29 02:24:15;;;;;;;48.17;21.03;;;;;;;;;;4992860;28;20022;-74
2024/01/29 02:26:45;;;;;;;50.47;21.20;;;;;;;;;;5009244;28;20032;-74
2024/01/29 02:29:10;;;;;;;48.40;20.90;;;;;;;;;;5010845;28;20049;-73
2024/01/29 02:31:36;;;;;;;39.60;17.97;;;;;;;;;;5008980;28;20062;-73
2024/01/29 02:34:01;;;;;;;48.50;20.30;;;;;;;;;;5010740;28;20450;-74
2024/01/29 02:36:27;;;;;;;49.37;19.10;;;;;;;;;;5010212;28;20040;-72
2024/01/29 02:38:52;;;;;;;47.83;20.10;;;;;;;;;;5009126;28;20028;-73
2024/01/29 02:41:18;;;;;;;41.30;19.37;;;;;;;;;;5016220;28;20425;-72
2024/01/29 02:43:43;;;;;;;40.17;19.57;;;;;;;;;;5032414;28;20547;-73
2024/01/29 02:46:09;;;;;;;53.30;20.43;;;;;;;;;;5032612;28;20025;-73
2024/01/29 02:48:34;;;;;;;49.93;20.30;;;;;;;;;;5030611;28;20040;-72
2024/01/29 02:51:00;;;;;;;52.10;21.73;;;;;;;;;;5028864;28;20082;-76
2024/01/29 02:53:25;;;;;;;49.40;19.93;;;;;;;;;;5028487;28;20033;-74
2024/01/29 02:55:51;;;;;;;42.60;19.47;;;;;;;;;;5029740;28;20044;-74
2024/01/29 02:58:16;;;;;;;44.93;19.67;;;;;;;;;;5030034;28;20037;-75
2024/01/29 03:00:42;;;;;;;48.10;19.40;;;;;;;;;;5028260;28;20033;-74
2024/01/29 03:03:07;;;;;;;54.90;21.23;;;;;;;;;;5029396;28;20029;-73
2024/01/29 03:05:33;;;;;;;43.20;19.97;;;;;;;;;;5030593;28;20381;-73
2024/01/29 03:07:58;;;;;;;47.47;20.60;;;;;;;;;;5029637;28;20100;-74
2024/01/29 03:10:24;;;;;;;56.00;20.33;;;;;;;;;;5028304;28;20139;-75
2024/01/29 03:12:50;;;;;;;52.93;19.43;;;;;;;;;;5011906;28;20065;-72
2024/01/29 03:15:15;;;;;;;38.10;18.90;;;;;;;;;;5029728;28;20367;-73
2024/01/29 03:17:41;;;;;;;38.87;19.47;;;;;;;;;;5029492;28;20026;-74
2024/01/29 03:20:07;;;;;;;37.37;19.13;;;;;;;;;;5028275;28;20045;-73
2024/01/29 03:22:34;;;;;;;38.73;18.63;;;;;;;;;;5028063;28;20405;-73
2024/01/29 03:24:59;;;;;;;40.73;18.63;;;;;;;;;;5028902;28;20021;-74
2024/01/29 03:27:25;;;;;;;49.23;21.00;;;;;;;;;;5030027;28;20026;-72
2024/01/29 03:29:50;;;;;;;43.60;19.97;;;;;;;;;;5028230;28;20492;-75
2024/01/29 03:32:16;;;;;;;51.57;19.90;;;;;;;;;;5032492;28;20040;-73
2024/01/29 03:34:44;;;;;;;54.93;21.73;;;;;;;;;;5034188;28;20026;-74
2024/01/29 03:37:10;;;;;;;44.23;19.23;;;;;;;;;;5032373;28;20025;-72
2024/01/29 03:39:38;;;;;;;54.37;22.23;;;;;;;;;;5032496;28;20378;-72
2024/01/29 03:42:04;;;;;;;42.73;21.17;;;;;;;;;;5034826;28;20025;-74
2024/01/29 03:44:29;;;;;;;46.33;23.10;;;;;;;;;;5038729;28;20029;-75
2024/01/29 03:46:55;;;;;;;58.20;22.53;;;;;;;;;;5039113;28;20125;-73
2024/01/29 03:49:20;;;;;;;46.97;21.50;;;;;;;;;;5032522;28;20099;-72
2024/01/29 03:51:47;;;;;;;51.60;21.60;;;;;;;;;;5031805;28;20650;-73
2024/01/29 03:54:12;;;;;;;43.23;21.13;;;;;;;;;;5031847;28;20017;-74
2024/01/29 03:56:38;;;;;;;47.03;22.07;;;;;;;;;;5033077;28;20087;-74
2024/01/29 03:59:03;;;;;;;44.47;21.30;;;;;;;;;;5032019;28;20147;-75
2024/01/29 04:01:30;;;;;;;41.00;21.13;;;;;;;;;;5032150;28;20040;-73
2024/01/29 04:03:56;;;;;;;56.20;23.07;;;;;;;;;;5035626;28;20041;-72
2024/01/29 04:06:22;;;;;;;52.40;23.30;;;;;;;;;;5036441;28;20044;-74
2024/01/29 04:08:47;;;;;;;58.00;23.83;;;;;;;;;;5032595;28;20041;-73
2024/01/29 04:11:13;;;;;;;54.93;23.13;;;;;;;;;;5031389;28;20053;-73
2024/01/29 04:13:39;;;;;;;50.70;23.97;;;;;;;;;;5031440;28;20100;-72
2024/01/29 04:16:08;;;;;;;46.60;23.50;;;;;;;;;;5033241;28;20048;-75
2024/01/29 04:18:33;;;;;;;62.80;23.73;;;;;;;;;;5033029;28;20017;-72
2024/01/29 04:20:59;;;;;;;46.63;21.90;;;;;;;;;;5032810;28;20104;-73
2024/01/29 04:23:24;;;;;;;52.33;21.23;;;;;;;;;;5031211;28;20060;-73
2024/01/29 04:25:50;;;;;;;50.63;20.77;;;;;;;;;;5030795;28;20120;-73
2024/01/29 04:28:16;;;;;;;49.40;20.43;;;;;;;;;;5032446;28;20035;-74
2024/01/29 04:30:43;;;;;;;43.87;21.07;;;;;;;;;;5032586;28;20041;-73
2024/01/29 04:33:08;;;;;;;38.20;19.30;;;;;;;;;;5032545;28;20040;-72
2024/01/29 04:35:35;;;;;;;38.20;17.77;;;;;;;;;;5032770;28;20108;-72
2024/01/29 04:38:01;;;;;;;37.20;18.90;;;;;;;;;;5031715;28;20430;-73
2024/01/29 04:40:26;;;;;;;52.47;19.97;;;;;;;;;;5032425;28;20117;-73
2024/01/29 04:42:52;;;;;;;40.67;19.53;;;;;;;;;;5032168;28;20359;-74
2024/01/29 04:45:17;;;;;;;49.27;19.40;;;;;;;;;;5032608;28;20031;-74
2024/01/29 04:47:43;;;;;;;38.77;19.97;;;;;;;;;;5030507;28;20029;-73
2024/01/29 04:50:09;;;;;;;33.47;17.70;;;;;;;;;;5030993;28;20060;-72
2024/01/29 04:52:34;;;;;;;47.20;18.20;;;;;;;;;;5032219;28;20519;-74
2024/01/29 04:55:00;;;;;;;46.83;19.83;;;;;;;;;;5032095;28;20030;-74
2024/01/29 04:57:26;;;;;;;45.27;20.20;;;;;;;;;;5030733;28;20486;-74
2024/01/29 04:59:51;;;;;;;40.80;18.70;;;;;;;;;;5030861;28;20106;-72
2024/01/29 05:02:17;;;;;;;43.93;19.53;;;;;;;;;;5030701;28;20116;-75
2024/01/29 05:04:43;;;;;;;48.90;20.20;;;;;;;;;;5030995;28;20017;-73
2024/01/29 05:07:09;;;;;;;41.63;19.77;;;;;;;;;;5030403;28;20191;-73
2024/01/29 05:09:35;;;;;;;43.47;17.77;;;;;;;;;;5031997;28;20133;-74
2024/01/29 05:12:01;;;;;;;49.93;19.20;;;;;;;;;;5029986;28;20409;-75
2024/01/29 05:14:27;;;;;;;41.37;19.80;;;;;;;;;;5030493;28;20028;-74
2024/01/29 05:16:53;;;;;;;51.47;20.80;;;;;;;;;;5032088;28;20034;-75
2024/01/29 05:19:19;;;;;;;37.30;18.00;;;;;;;;;;5038679;28;20473;-72
2024/01/29 05:21:45;;;;;;;43.47;18.93;;;;;;;;;;5033965;28;20110;-74
2024/01/29 05:24:11;;;;;;;43.27;18.50;;;;;;;;;;5031914;28;20450;-74
2024/01/29 05:26:36;;;;;;;50.03;19.33;;;;;;;;;;5030177;28;20030;-75
2024/01/29 05:29:02;;;;;;;43.53;19.07;;;;;;;;;;5030020;28;20428;-75
2024/01/29 05:31:27;;;;;;;42.33;18.07;;;;;;;;;;5029769;28;20026;-72
2024/01/29 05:33:53;;;;;;;44.00;18.67;;;;;;;;;;5029459;28;20026;-73
2024/01/29 05:36:19;;;;;;;36.13;17.67;;;;;;;;;;5013660;28;20604;-73
2024/01/29 05:38:46;;;;;;;40.73;18.43;;;;;;;;;;5030067;28;20025;-73
2024/01/29 05:41:11;;;;;;;45.53;20.10;;;;;;;;;;5031650;28;20021;-75
2024/01/29 05:43:37;;;;;;;46.40;18.77;;;;;;;;;;5031140;28;20032;-75
2024/01/29 05:46:03;;;;;;;39.80;19.07;;;;;;;;;;5031140;28;20025;-75
2024/01/29 05:48:29;;;;;;;43.13;19.30;;;;;;;;;;5030929;28;20485;-74
2024/01/29 05:50:56;;;;;;;44.23;19.33;;;;;;;;;;5030954;28;20075;-77
2024/01/29 05:53:22;;;;;;;46.90;20.07;;;;;;;;;;5029531;28;20040;-74
2024/01/29 05:55:48;;;;;;;48.47;20.50;;;;;;;;;;5012680;28;20026;-74
2024/01/29 05:58:14;;;;;;;51.10;19.87;;;;;;;;;;5031187;28;20034;-74
2024/01/29 06:00:40;;;;;;;44.83;19.37;;;;;;;;;;5029583;28;20120;-69
2024/01/29 06:03:06;;;;;;;42.77;19.67;;;;;;;;;;5030617;28;20477;-73
2024/01/29 06:05:31;;;;;;;43.63;17.97;;;;;;;;;;5031037;28;20124;-75
2024/01/29 06:07:57;;;;;;;54.97;19.17;;;;;;;;;;5029321;28;20072;-73
2024/01/29 06:10:23;;;;;;;36.97;16.40;;;;;;;;;;5029267;28;20102;-75
2024/01/29 06:12:48;;;;;;;44.27;19.43;;;;;;;;;;5030762;28;20071;-73
2024/01/29 06:15:14;;;;;;;39.87;17.10;;;;;;;;;;5030943;28;20036;-74
2024/01/29 06:17:40;;;;;;;45.13;19.33;;;;;;;;;;5023134;28;20099;-75
2024/01/29 06:20:07;;;;;;;43.47;19.00;;;;;;;;;;5017232;28;20061;-74
2024/01/29 06:22:33;;;;;;;41.37;18.40;;;;;;;;;;5029215;28;20029;-73
2024/01/29 06:25:02;;;;;;;51.77;19.43;;;;;;;;;;5013634;28;20511;-75
2024/01/29 06:27:41;;;;;;;39.40;19.00;;;;;;;;;;5024651;28;20029;-72
2024/01/29 06:30:07;;;;;;;50.50;18.40;;;;;;;;;;5024903;28;20068;-73
2024/01/29 06:32:33;;;;;;;42.63;18.20;;;;;;;;;;5032211;28;20017;-72
2024/01/29 06:34:59;;;;;;;41.37;18.20;;;;;;;;;;5031483;28;20033;-72
2024/01/29 06:37:34;;;;;;;45.17;18.27;;;;;;;;;;5011638;28;20466;-76
2024/01/29 06:40:06;;;;;;;39.83;17.93;;;;;;;;;;4996919;28;20056;-74
2024/01/29 06:42:47;;;;;;;50.17;21.13;;;;;;;;;;5020912;28;20116;-73
2024/01/29 06:45:24;;;;;;;34.60;17.37;;;;;;;;;;5024061;28;20024;-73
2024/01/29 06:47:53;;;;;;;52.00;22.07;;;;;;;;;;5012789;28;20052;-76
2024/01/29 06:50:33;;;;;;;48.93;19.80;;;;;;;;;;5023662;28;20029;-74
2024/01/29 06:53:05;;;;;;;59.27;22.87;;;;;;;;;;5021413;28;20026;-74
2024/01/29 06:55:32;;;;;;;45.13;21.02;;;;;;;;;;5031097;28;20021;-73
2024/01/29 06:58:15;;;;;;;47.70;22.27;;;;;;;;;;5029131;28;20045;-75
2024/01/29 07:01:05;;;;;;;49.23;23.33;;;;;;;;;;5031727;28;20025;-76
2024/01/29 07:03:41;;;;;;;;;;;;;;;;;;;;;
2024/01/29 07:06:18;;;;;;;57.20;22.40;;;;;;;;;;5021963;28;20505;-75
2024/01/29 07:08:50;;;;;;;45.87;22.93;;;;;;;;;;5016282;28;20060;-70
2024/01/29 07:11:16;;;;;;;;;;;;;;;;;;5027771;28;20041;-76
2024/01/29 07:13:48;;;;;;;47.50;19.50;;;;;;;;;;5031702;28;20178;-74
2024/01/29 07:16:14;;;;;;;49.03;21.30;;;;;;;;;;5014397;28;20042;-76
2024/01/29 07:18:55;;;;;;;51.30;21.37;;;;;;;;;;5021127;28;20417;-74
2024/01/29 07:21:21;;;;;;;72.63;25.93;;;;;;;;;;5011609;28;20053;-74
2024/01/29 07:23:47;;;;;;;55.90;25.70;;;;;;;;;;5024203;28;20025;-76
2024/01/29 07:26:13;;;;;;;61.13;26.53;;;;;;;;;;5025739;28;20108;-74
2024/01/29 07:28:39;;;;;;;68.60;26.60;;;;;;;;;;5027340;28;20036;-76
2024/01/29 07:31:05;;;;;;;63.97;27.50;;;;;;;;;;5026563;28;20022;-75
2024/01/29 07:33:31;;;;;;;65.20;26.17;;;;;;;;;;5018991;28;20088;-73
2024/01/29 07:35:57;;;;;;;60.00;27.63;;;;;;;;;;5022048;28;20060;-73
2024/01/29 07:38:23;;;;;;;78.77;31.70;;;;;;;;;;4998145;28;20573;-72
2024/01/29 07:40:49;;;;;;;63.77;28.50;;;;;;;;;;5002002;28;20567;-73
2024/01/29 07:43:15;;;;;;;63.13;26.50;;;;;;;;;;5016954;28;20025;-74
2024/01/29 07:45:42;;;;;;;57.70;26.13;;;;;;;;;;5016321;28;20095;-71
2024/01/29 07:48:09;;;;;;;59.23;25.53;;;;;;;;;;5017274;28;20026;-75
2024/01/29 07:50:35;;;;;;;60.00;24.77;;;;;;;;;;5013019;28;21782;-75
2024/01/29 07:53:00;;;;;;;57.30;25.43;;;;;;;;;;5015762;28;20091;-70
2024/01/29 07:55:26;;;;;;;52.40;23.67;;;;;;;;;;5025160;28;20114;-72
2024/01/29 07:57:53;;;;;;;61.03;25.50;;;;;;;;;;5015071;28;20034;-74
2024/01/29 08:00:20;;;;;;;61.33;25.80;;;;;;;;;;5007727;28;20037;-76
2024/01/29 08:02:46;;;;;;;59.37;25.77;;;;;;;;;;5009385;28;20037;-73
2024/01/29 08:05:11;;;;;;;56.40;23.03;;;;;;;;;;5009059;28;20378;-74
2024/01/29 08:07:37;;;;;;;54.50;24.77;;;;;;;;;;5017808;28;20363;-74
2024/01/29 08:10:03;;;;;;;49.50;21.83;;;;;;;;;;5016856;28;20526;-73
2024/01/29 08:12:30;;;;;;;50.97;24.17;;;;;;;;;;5009376;28;20041;-72
2024/01/29 08:14:57;;;;;;;60.47;26.00;;;;;;;;;;5019602;28;20065;-75
2024/01/29 08:17:23;;;;;;;60.27;25.50;;;;;;;;;;5014896;28;20033;-76
2024/01/29 08:19:49;;;;;;;56.40;23.90;;;;;;;;;;5014322;28;20065;-77
2024/01/29 08:22:16;;;;;;;60.03;24.13;;;;;;;;;;5017412;28;20421;-75
2024/01/29 08:24:41;;;;;;;52.13;23.63;;;;;;;;;;5005376;28;20125;-75
2024/01/29 08:27:07;;;;;;;61.40;26.90;;;;;;;;;;5017803;28;20124;-74
2024/01/29 08:29:32;;;;;;;55.07;26.57;;;;;;;;;;5017512;28;20042;-75
2024/01/29 08:31:58;;;;;;;65.40;24.93;;;;;;;;;;5023984;28;20074;-74
2024/01/29 08:34:29;;;;;;;59.77;26.90;;;;;;;;;;5028782;28;20037;-75
2024/01/29 08:36:55;;;;;;;58.83;26.23;;;;;;;;;;5017606;28;20041;-70
2024/01/29 08:39:21;;;;;;;63.67;25.37;;;;;;;;;;5012791;28;20179;-74
2024/01/29 08:41:46;;;;;;;56.73;25.20;;;;;;;;;;5017802;28;20093;-74
2024/01/29 08:44:12;;;;;;;52.80;24.90;;;;;;;;;;5030466;28;20036;-73
2024/01/29 08:46:37;;;;;;;50.50;24.23;;;;;;;;;;5024518;28;20043;-71
2024/01/29 08:49:04;;;;;;;60.80;27.27;;;;;;;;;;5016767;28;20141;-74
2024/01/29 08:51:30;;;;;;;63.87;26.27;;;;;;;;;;5027472;28;20082;-72
2024/01/29 08:53:57;;;;;;;60.03;27.07;;;;;;;;;;5022567;28;20511;-71
2024/01/29 08:56:22;;;;;;;53.87;26.60;;;;;;;;;;5020602;28;20162;-71
2024/01/29 08:58:48;;;;;;;57.33;23.90;;;;;;;;;;5020196;28;20064;-73
2024/01/29 09:01:14;;;;;;;63.33;25.87;;;;;;;;;;5021391;28;20039;-73
2024/01/29 09:03:41;;;;;;;57.53;24.30;;;;;;;;;;5010082;28;20022;-71
2024/01/29 09:06:07;;;;;;;51.40;24.90;;;;;;;;;;5020910;28;20048;-69
2024/01/29 09:08:33;;;;;;;60.67;26.70;;;;;;;;;;5022257;28;20041;-73
2024/01/29 09:10:58;;;;;;;50.13;24.13;;;;;;;;;;5017937;28;20049;-71
2024/01/29 09:13:26;;;;;;;60.63;25.53;;;;;;;;;;5008126;28;20194;-72
2024/01/29 09:15:51;;;;;;;53.47;24.53;;;;;;;;;;5013044;28;20835;-73
2024/01/29 09:18:17;;;;;;;58.63;23.10;;;;;;;;;;5010937;28;20034;-75
2024/01/29 09:20:43;;;;;;;54.53;24.40;;;;;;;;;;4991484;28;20033;-74
2024/01/29 09:23:08;;;;;;;59.83;24.13;;;;;;;;;;5010550;28;20040;-70
2024/01/29 09:25:36;;;;;;;55.17;21.77;;;;;;;;;;5017779;28;20044;-72
2024/01/29 09:28:02;;;;;;;59.63;24.43;;;;;;;;;;5016015;28;20061;-75
2024/01/29 09:30:27;;;;;;;55.60;24.40;;;;;;;;;;5019146;28;20049;-70
2024/01/29 09:32:53;;;;;;;48.17;23.90;;;;;;;;;;5022021;28;20658;-75
2024/01/29 09:35:20;;;;;;;63.47;24.53;;;;;;;;;;5023122;28;20068;-69
2024/01/29 09:37:47;;;;;;;49.27;24.27;;;;;;;;;;5020554;28;20038;-74
2024/01/29 09:40:13;;;;;;;46.43;21.50;;;;;;;;;;5020308;28;20029;-75
2024/01/29 09:42:41;;;;;;;45.73;21.50;;;;;;;;;;5016836;28;20225;-75
2024/01/29 09:45:10;;;;;;;62.13;24.77;;;;;;;;;;5019384;28;20034;-76
2024/01/29 09:47:37;;;;;;;55.23;23.33;;;;;;;;;;5033276;28;20025;-77
2024/01/29 09:50:07;;;;;;;63.50;23.50;;;;;;;;;;5021068;28;20053;-75
2024/01/29 09:52:37;;;;;;;48.10;24.47;;;;;;;;;;5026245;28;20192;-71
2024/01/29 09:55:04;;;;;;;49.20;21.83;;;;;;;;;;5016807;28;20056;-70
2024/01/29 09:57:31;;;;;;;47.73;24.27;;;;;;;;;;5014935;28;20141;-76
2024/01/29 09:59:57;;;;;;;61.70;24.63;;;;;;;;;;5013114;28;20034;-75
2024/01/29 10:02:24;;;;;;;54.20;22.93;;;;;;;;;;5018880;28;20040;-75
2024/01/29 10:04:50;;;;;;;52.77;25.00;;;;;;;;;;5021585;28;20040;-73
2024/01/29 10:07:16;;;;;;;42.53;23.77;;;;;;;;;;5016049;28;20042;-73
2024/01/29 10:09:42;;;;;;;49.03;23.00;;;;;;;;;;5016240;28;20034;-68
2024/01/29 10:12:08;;;;;;;47.93;22.97;;;;;;;;;;5038452;28;20060;-74
2024/01/29 10:14:37;;;;;;;52.73;20.63;;;;;;;;;;5024524;28;20030;-76
2024/01/29 10:17:03;;;;;;;50.10;21.80;;;;;;;;;;5006376;28;20048;-74
2024/01/29 10:19:38;;;;;;;53.60;22.83;;;;;;;;;;5015259;28;20449;-76
2024/01/29 10:22:16;;;;;;;45.40;19.07;;;;;;;;;;5004354;28;20036;-73
2024/01/29 10:24:43;;;;;;;45.30;20.40;;;;;;;;;;5021883;28;20144;-69
2024/01/29 10:27:10;;;;;;;46.53;19.87;;;;;;;;;;5011074;28;20025;-72
2024/01/29 10:29:47;;;;;;;38.97;19.37;;;;;;;;;;5001385;28;20526;-75
2024/01/29 10:32:12;;;;;;;39.00;19.23;;;;;;;;;;5005629;28;20606;-77
2024/01/29 10:34:38;;;;;;;41.93;19.40;;;;;;;;;;5019310;28;20025;-74
2024/01/29 10:37:06;;;;;;;42.03;19.87;;;;;;;;;;5023766;28;20040;-75
2024/01/29 10:39:34;;;;;;;36.13;18.17;;;;;;;;;;5018010;28;20037;-74
2024/01/29 10:42:01;;;;;;;36.03;17.27;;;;;;;;;;5021521;28;20126;-74
2024/01/29 10:44:32;;;;;;;43.60;19.33;;;;;;;;;;5021562;28;20071;-75
2024/01/29 10:47:10;;;;;;;40.87;17.73;;;;;;;;;;5012827;28;20160;-71
2024/01/29 10:49:36;;;;;;;47.83;19.43;;;;;;;;;;5003965;28;20029;-75
2024/01/29 10:52:03;;;;;;;31.10;16.80;;;;;;;;;;5019611;28;20034;-73
2024/01/29 10:54:32;;;;;;;44.97;18.23;;;;;;;;;;5020826;28;20112;-71
2024/01/29 10:56:59;;;;;;;35.10;17.00;;;;;;;;;;5016829;28;20070;-75
2024/01/29 10:59:26;;;;;;;37.43;16.93;;;;;;;;;;5018154;28;20037;-76
2024/01/29 11:01:52;;;;;;;41.13;16.87;;;;;;;;;;5020771;28;20497;-75
2024/01/29 11:04:20;;;;;;;39.40;18.00;;;;;;;;;;5014950;28;20021;-75
2024/01/29 11:06:52;;;;;;;33.67;17.60;;;;;;;;;;5019687;28;20030;-74
2024/01/29 11:09:24;;;;;;;35.25;17.80;;;;;;;;;;5016450;28;20553;-71
2024/01/29 11:11:54;;;;;;;45.57;21.80;;;;;;;;;;4995312;28;20060;-72
2024/01/29 11:14:24;;;;;;;39.00;17.97;;;;;;;;;;5016758;28;20088;-75
2024/01/29 11:16:55;;;;;;;38.67;17.27;;;;;;;;;;5006247;28;20072;-71
2024/01/29 11:19:22;;;;;;;50.93;20.80;;;;;;;;;;4996498;28;20036;-71
2024/01/29 11:21:51;;;;;;;38.13;17.77;;;;;;;;;;4999572;28;20820;-73
2024/01/29 11:24:21;;;;;;;46.93;20.23;;;;;;;;;;5006498;28;20052;-73
2024/01/29 11:26:47;;;;;;;46.53;19.00;;;;;;;;;;5018641;28;20033;-73
2024/01/29 11:29:21;;;;;;;44.93;17.77;;;;;;;;;;5006858;28;20037;-70
2024/01/29 11:32:05;;;;;;;;;;;;;;;;;;5017310;28;20079;-71
2024/01/29 11:34:32;;;;;;;32.93;16.00;;;;;;;;;;5012686;28;20412;-73
2024/01/29 11:36:58;;;;;;;31.70;16.70;;;;;;;;;;5014408;28;20103;-73
2024/01/29 11:39:27;;;;;;;32.93;16.27;;;;;;;;;;5017682;28;20381;-77
2024/01/29 11:41:56;;;;;;;40.23;19.37;;;;;;;;;;5013714;28;20025;-73
2024/01/29 11:44:26;;;;;;;41.40;19.27;;;;;;;;;;5016953;28;20366;-76
2024/01/29 11:46:55;;;;;;;48.57;20.63;;;;;;;;;;5017450;28;20036;-74
2024/01/29 11:49:27;;;;;;;47.63;21.20;;;;;;;;;;5011704;28;20038;-69
2024/01/29 11:51:56;;;;;;;37.93;20.17;;;;;;;;;;5003701;28;20037;-76
2024/01/29 11:54:24;;;;;;;54.10;25.30;;;;;;;;;;5014021;28;20038;-72
2024/01/29 11:56:50;;;;;;;45.43;20.63;;;;;;;;;;5003873;28;21523;-74
2024/01/29 11:59:15;;;;;;;34.20;17.43;;;;;;;;;;5016752;28;20033;-72
2024/01/29 12:01:45;;;;;;;34.37;18.80;;;;;;;;;;5030808;28;20281;-71
2024/01/29 12:04:11;;;;;;;34.43;18.53;;;;;;;;;;5025383;28;20052;-74
2024/01/29 12:06:38;;;;;;;40.27;17.37;;;;;;;;;;5025586;28;20031;-76
2024/01/29 12:09:09;;;;;;;40.63;17.93;;;;;;;;;;5021952;28;20025;-75
2024/01/29 12:11:35;;;;;;;35.57;17.43;;;;;;;;;;5028181;28;20054;-75
2024/01/29 12:14:00;;;;;;;34.47;18.53;;;;;;;;;;5022041;28;20037;-75
2024/01/29 12:16:27;;;;;;;44.67;16.37;;;;;;;;;;5024270;28;20036;-75
2024/01/29 12:18:54;;;;;;;31.20;15.10;;;;;;;;;;5020360;28;20033;-74
2024/01/29 12:21:20;;;;;;;29.67;13.93;;;;;;;;;;5023498;28;20085;-76
2024/01/29 12:23:46;;;;;;;43.33;17.40;;;;;;;;;;5025211;28;20033;-73
2024/01/29 12:26:13;;;;;;;37.43;17.63;;;;;;;;;;5024757;28;20029;-75
2024/01/29 12:28:40;;;;;;;51.77;21.50;;;;;;;;;;5021140;28;20036;-75
2024/01/29 12:31:06;;;;;;;41.77;18.93;;;;;;;;;;5023626;28;20021;-74
2024/01/29 12:33:33;;;;;;;44.23;20.27;;;;;;;;;;5017117;28;20083;-74
2024/01/29 12:36:19;;;;;;;43.47;20.13;;;;;;;;;;5023143;28;20112;-74
2024/01/29 12:38:52;;;;;;;46.80;21.00;;;;;;;;;;5021842;28;20519;-72
2024/01/29 12:41:18;;;;;;;49.43;21.43;;;;;;;;;;5021803;28;20512;-75
2024/01/29 12:43:44;;;;;;;46.90;22.20;;;;;;;;;;5008510;28;20125;-74
2024/01/29 12:46:12;;;;;;;37.40;15.53;;;;;;;;;;5020693;28;20477;-73
2024/01/29 12:48:39;;;;;;;27.40;13.73;;;;;;;;;;5023999;28;20295;-75
2024/01/29 12:51:05;;;;;;;25.27;10.90;;;;;;;;;;5011933;28;20429;-74
2024/01/29 12:53:31;;;;;;;37.67;19.13;;;;;;;;;;5020867;28;20132;-74
2024/01/29 12:55:57;;;;;;;22.07;11.53;;;;;;;;;;5011511;28;20529;-74
2024/01/29 12:58:26;;;;;;;20.87;11.20;;;;;;;;;;5016445;28;22115;-73
2024/01/29 13:00:52;;;;;;;25.50;11.63;;;;;;;;;;5021499;28;20057;-76
2024/01/29 13:03:18;;;;;;;19.17;10.20;;;;;;;;;;5024780;28;20373;-73
2024/01/29 13:05:46;;;;;;;20.40;9.73;;;;;;;;;;5014208;28;20036;-73
2024/01/29 13:08:12;;;;;;;35.50;15.98;;;;;;;;;;5009123;28;20039;-78
2024/01/29 13:10:37;;;;;;;48.03;20.43;;;;;;;;;;5010376;28;20346;-78
2024/01/29 13:13:07;;;;;;;45.53;19.47;;;;;;;;;;5026305;28;20096;-74
2024/01/29 13:15:36;;;;;;;58.33;20.02;;;;;;;;;;5018463;28;20072;-74
2024/01/29 13:18:02;;;;;;;42.97;20.17;;;;;;;;;;5006164;28;20423;-76
2024/01/29 13:20:28;;;;;;;38.90;19.80;;;;;;;;;;5021912;28;20083;-75
2024/01/29 13:22:54;;;;;;;39.80;20.52;;;;;;;;;;5021311;28;20052;-74
2024/01/29 13:25:20;;;;;;;47.30;20.85;;;;;;;;;;5022191;28;20045;-74
2024/01/29 13:27:46;;;;;;;49.53;20.65;;;;;;;;;;5019525;28;20060;-71
2024/01/29 13:30:12;;;;;;;39.08;18.75;;;;;;;;;;5019483;28;20482;-73
2024/01/29 13:32:40;;;;;;;37.60;19.17;;;;;;;;;;5006062;28;20796;-75
2024/01/29 13:35:08;;;;;;;51.58;21.83;;;;;;;;;;5013521;28;21426;-74
2024/01/29 13:37:35;;;;;;;52.00;20.95;;;;;;;;;;5019712;28;20032;-75
2024/01/29 13:40:02;;;;;;;39.53;20.37;;;;;;;;;;5017166;28;20025;-75
2024/01/29 13:42:28;;;;;;;49.28;21.50;;;;;;;;;;5018891;28;20108;-71
2024/01/29 13:44:57;;;;;;;46.50;21.63;;;;;;;;;;5023516;28;20032;-73
2024/01/29 13:47:23;;;;;;;50.20;21.63;;;;;;;;;;5021794;28;20052;-76
2024/01/29 13:49:48;;;;;;;38.17;20.30;;;;;;;;;;5024418;28;20489;-74
2024/01/29 13:52:14;;;;;;;47.03;21.87;;;;;;;;;;5008246;28;20033;-73
2024/01/29 13:54:40;;;;;;;42.23;20.47;;;;;;;;;;5020487;28;20060;-75
2024/01/29 13:57:06;;;;;;;37.93;18.93;;;;;;;;;;5020415;28;20876;-74
2024/01/29 13:59:35;;;;;;;46.07;20.23;;;;;;;;;;5020439;28;20592;-75
2024/01/29 14:02:01;;;;;;;43.30;20.47;;;;;;;;;;5020068;28;20052;-74
2024/01/29 14:04:27;;;;;;;47.63;21.40;;;;;;;;;;5022030;28;20029;-70
2024/01/29 14:06:58;;;;;;;46.07;22.70;;;;;;;;;;5023081;28;20032;-74
2024/01/29 14:09:24;;;;;;;61.30;26.13;;;;;;;;;;5020584;28;20075;-71
2024/01/29 14:11:50;;;;;;;47.67;21.17;;;;;;;;;;5016923;28;20449;-74
2024/01/29 14:14:16;;;;;;;51.90;22.47;;;;;;;;;;5024253;28;20029;-77
2024/01/29 14:16:42;;;;;;;54.00;22.93;;;;;;;;;;5021711;28;20030;-75